sensor_id;sensor_type;location;lat;lon;timestamp;P1;durP1;ratioP1;P2;durP2;ratioP2
49422;SDS011;36998;51.974;20.150;2022-12-18T00:00:58;72.07;;;22.63;;
49422;SDS011;36998;51.974;20.150;2022-12-18T00:03:23;92.05;;;30.08;;
49422;SDS011;36998;51.974;20.150;2022-12-18T00:05:50;81.18;;;26.85;;
49422;SDS011;36998;51.974;20.150;2022-12-18T00:08:17;75.32;;;22.85;;
49422;SDS011;36998;51.974;20.150;2022-12-18T00:10:45;69.63;;;23.77;;
49422;SDS011;36998;51.974;20.150;2022-12-18T00:13:12;62.70;;;20.35;;
49422;SDS011;36998;51.974;20.150;2022-12-18T00:15:38;75.70;;;25.45;;
49422;SDS011;36998;51.974;20.150;2022-12-18T00:18:04;100.07;;;31.50;;
49422;SDS011;36998;51.974;20.150;2022-12-18T00:20:35;91.82;;;28.65;;
49422;SDS011;36998;51.974;20.150;2022-12-18T00:23:05;95.07;;;27.77;;
49422;SDS011;36998;51.974;20.150;2022-12-18T00:25:34;81.40;;;24.83;;
49422;SDS011;36998;51.974;20.150;2022-12-18T00:28:01;84.05;;;26.35;;
49422;SDS011;36998;51.974;20.150;2022-12-18T00:30:28;91.43;;;26.40;;
49422;SDS011;36998;51.974;20.150;2022-12-18T00:32:54;90.03;;;26.65;;
49422;SDS011;36998;51.974;20.150;2022-12-18T00:35:19;82.50;;;26.25;;
49422;SDS011;36998;51.974;20.150;2022-12-18T00:37:45;80.22;;;23.90;;
49422;SDS011;36998;51.974;20.150;2022-12-18T00:40:11;72.93;;;23.27;;
49422;SDS011;36998;51.974;20.150;2022-12-18T00:42:37;81.30;;;26.50;;
49422;SDS011;36998;51.974;20.150;2022-12-18T00:45:21;96.38;;;28.63;;
49422;SDS011;36998;51.974;20.150;2022-12-18T00:47:48;75.05;;;25.15;;
49422;SDS011;36998;51.974;20.150;2022-12-18T00:50:13;75.53;;;23.88;;
49422;SDS011;36998;51.974;20.150;2022-12-18T00:52:40;80.32;;;26.48;;
49422;SDS011;36998;51.974;20.150;2022-12-18T00:55:06;86.47;;;25.55;;
49422;SDS011;36998;51.974;20.150;2022-12-18T00:57:33;76.47;;;27.27;;
49422;SDS011;36998;51.974;20.150;2022-12-18T00:59:58;80.90;;;25.27;;
49422;SDS011;36998;51.974;20.150;2022-12-18T01:02:24;85.43;;;28.02;;
49422;SDS011;36998;51.974;20.150;2022-12-18T01:04:49;87.90;;;25.92;;
49422;SDS011;36998;51.974;20.150;2022-12-18T01:07:18;72.20;;;24.70;;
49422;SDS011;36998;51.974;20.150;2022-12-18T01:09:44;92.65;;;29.17;;
49422;SDS011;36998;51.974;20.150;2022-12-18T01:12:09;80.07;;;24.45;;
49422;SDS011;36998;51.974;20.150;2022-12-18T01:14:35;73.10;;;22.92;;
49422;SDS011;36998;51.974;20.150;2022-12-18T01:17:03;85.50;;;24.42;;
49422;SDS011;36998;51.974;20.150;2022-12-18T01:19:31;82.10;;;26.47;;
49422;SDS011;36998;51.974;20.150;2022-12-18T01:21:57;90.63;;;24.67;;
49422;SDS011;36998;51.974;20.150;2022-12-18T01:24:23;85.13;;;25.98;;
49422;SDS011;36998;51.974;20.150;2022-12-18T01:26:49;94.60;;;26.30;;
49422;SDS011;36998;51.974;20.150;2022-12-18T01:29:15;77.53;;;24.60;;
49422;SDS011;36998;51.974;20.150;2022-12-18T01:31:40;67.25;;;21.15;;
49422;SDS011;36998;51.974;20.150;2022-12-18T01:34:06;79.35;;;23.08;;
49422;SDS011;36998;51.974;20.150;2022-12-18T01:36:34;95.20;;;27.83;;
49422;SDS011;36998;51.974;20.150;2022-12-18T01:39:03;98.53;;;27.33;;
49422;SDS011;36998;51.974;20.150;2022-12-18T01:41:31;87.82;;;27.10;;
49422;SDS011;36998;51.974;20.150;2022-12-18T01:49:54;84.07;;;25.80;;
49422;SDS011;36998;51.974;20.150;2022-12-18T01:52:22;91.35;;;26.70;;
49422;SDS011;36998;51.974;20.150;2022-12-18T01:54:51;84.85;;;27.15;;
49422;SDS011;36998;51.974;20.150;2022-12-18T01:57:18;83.25;;;23.70;;
49422;SDS011;36998;51.974;20.150;2022-12-18T01:59:45;92.22;;;24.92;;
49422;SDS011;36998;51.974;20.150;2022-12-18T02:02:15;84.80;;;27.52;;
49422;SDS011;36998;51.974;20.150;2022-12-18T02:04:42;83.60;;;27.30;;
49422;SDS011;36998;51.974;20.150;2022-12-18T02:10:07;71.00;;;20.58;;
49422;SDS011;36998;51.974;20.150;2022-12-18T02:12:39;80.95;;;23.10;;
49422;SDS011;36998;51.974;20.150;2022-12-18T02:15:19;70.80;;;22.95;;
49422;SDS011;36998;51.974;20.150;2022-12-18T02:18:05;85.00;;;24.27;;
49422;SDS011;36998;51.974;20.150;2022-12-18T02:28:32;78.90;;;25.55;;
49422;SDS011;36998;51.974;20.150;2022-12-18T02:31:05;94.07;;;28.15;;
49422;SDS011;36998;51.974;20.150;2022-12-18T02:33:35;97.40;;;29.33;;
49422;SDS011;36998;51.974;20.150;2022-12-18T02:36:02;74.75;;;25.20;;
49422;SDS011;36998;51.974;20.150;2022-12-18T02:38:32;78.72;;;26.73;;
49422;SDS011;36998;51.974;20.150;2022-12-18T02:41:05;86.60;;;27.45;;
49422;SDS011;36998;51.974;20.150;2022-12-18T02:43:31;76.50;;;25.25;;
49422;SDS011;36998;51.974;20.150;2022-12-18T02:45:59;81.70;;;24.95;;
49422;SDS011;36998;51.974;20.150;2022-12-18T02:48:45;87.15;;;26.92;;
49422;SDS011;36998;51.974;20.150;2022-12-18T02:51:23;102.72;;;27.58;;
49422;SDS011;36998;51.974;20.150;2022-12-18T02:54:06;82.70;;;25.27;;
49422;SDS011;36998;51.974;20.150;2022-12-18T02:56:41;74.75;;;25.35;;
49422;SDS011;36998;51.974;20.150;2022-12-18T02:59:15;80.97;;;24.95;;
49422;SDS011;36998;51.974;20.150;2022-12-18T03:04:32;91.55;;;23.98;;
49422;SDS011;36998;51.974;20.150;2022-12-18T03:07:08;92.38;;;28.42;;
49422;SDS011;36998;51.974;20.150;2022-12-18T03:09:39;80.10;;;23.48;;
49422;SDS011;36998;51.974;20.150;2022-12-18T03:15:02;85.30;;;28.80;;
49422;SDS011;36998;51.974;20.150;2022-12-18T03:17:35;98.25;;;29.50;;
49422;SDS011;36998;51.974;20.150;2022-12-18T03:20:07;83.00;;;27.55;;
49422;SDS011;36998;51.974;20.150;2022-12-18T03:22:37;83.32;;;25.02;;
49422;SDS011;36998;51.974;20.150;2022-12-18T03:25:06;91.95;;;28.13;;
49422;SDS011;36998;51.974;20.150;2022-12-18T03:27:36;82.35;;;26.13;;
49422;SDS011;36998;51.974;20.150;2022-12-18T03:30:10;84.07;;;26.80;;
49422;SDS011;36998;51.974;20.150;2022-12-18T03:32:40;67.73;;;22.73;;
49422;SDS011;36998;51.974;20.150;2022-12-18T03:35:11;78.93;;;26.00;;
49422;SDS011;36998;51.974;20.150;2022-12-18T03:37:39;106.60;;;28.65;;
49422;SDS011;36998;51.974;20.150;2022-12-18T03:40:06;78.22;;;25.45;;
49422;SDS011;36998;51.974;20.150;2022-12-18T03:48:06;81.72;;;28.48;;
49422;SDS011;36998;51.974;20.150;2022-12-18T03:51:01;96.75;;;28.90;;
49422;SDS011;36998;51.974;20.150;2022-12-18T03:53:46;95.18;;;27.67;;
49422;SDS011;36998;51.974;20.150;2022-12-18T03:56:18;69.53;;;23.02;;
49422;SDS011;36998;51.974;20.150;2022-12-18T03:58:49;82.43;;;25.25;;
49422;SDS011;36998;51.974;20.150;2022-12-18T04:01:23;76.45;;;25.65;;
49422;SDS011;36998;51.974;20.150;2022-12-18T04:03:53;80.88;;;26.23;;
49422;SDS011;36998;51.974;20.150;2022-12-18T04:06:21;86.43;;;27.73;;
49422;SDS011;36998;51.974;20.150;2022-12-18T04:08:47;66.10;;;24.05;;
49422;SDS011;36998;51.974;20.150;2022-12-18T04:11:19;79.47;;;26.98;;
49422;SDS011;36998;51.974;20.150;2022-12-18T04:13:46;91.53;;;26.80;;
49422;SDS011;36998;51.974;20.150;2022-12-18T04:16:18;80.45;;;23.15;;
49422;SDS011;36998;51.974;20.150;2022-12-18T04:18:45;48.97;;;17.17;;
49422;SDS011;36998;51.974;20.150;2022-12-18T04:21:13;93.20;;;28.05;;
49422;SDS011;36998;51.974;20.150;2022-12-18T04:23:38;91.90;;;26.63;;
49422;SDS011;36998;51.974;20.150;2022-12-18T04:26:05;71.63;;;23.92;;
49422;SDS011;36998;51.974;20.150;2022-12-18T04:28:49;70.35;;;24.83;;
49422;SDS011;36998;51.974;20.150;2022-12-18T04:31:14;81.88;;;28.67;;
49422;SDS011;36998;51.974;20.150;2022-12-18T04:33:41;79.38;;;25.30;;
49422;SDS011;36998;51.974;20.150;2022-12-18T04:36:07;65.43;;;21.63;;
49422;SDS011;36998;51.974;20.150;2022-12-18T04:38:33;84.55;;;25.08;;
49422;SDS011;36998;51.974;20.150;2022-12-18T04:41:05;77.53;;;24.45;;
49422;SDS011;36998;51.974;20.150;2022-12-18T04:43:30;61.80;;;19.83;;
49422;SDS011;36998;51.974;20.150;2022-12-18T04:46:02;83.22;;;29.00;;
49422;SDS011;36998;51.974;20.150;2022-12-18T04:48:31;76.68;;;24.98;;
49422;SDS011;36998;51.974;20.150;2022-12-18T04:50:57;79.45;;;28.23;;
49422;SDS011;36998;51.974;20.150;2022-12-18T04:53:23;61.40;;;19.35;;
49422;SDS011;36998;51.974;20.150;2022-12-18T04:55:49;83.72;;;27.50;;
49422;SDS011;36998;51.974;20.150;2022-12-18T04:58:15;77.03;;;25.08;;
49422;SDS011;36998;51.974;20.150;2022-12-18T05:00:41;78.60;;;25.42;;
49422;SDS011;36998;51.974;20.150;2022-12-18T05:03:07;77.55;;;26.05;;
49422;SDS011;36998;51.974;20.150;2022-12-18T05:05:34;86.65;;;28.27;;
49422;SDS011;36998;51.974;20.150;2022-12-18T05:08:00;69.20;;;24.30;;
49422;SDS011;36998;51.974;20.150;2022-12-18T05:10:25;74.95;;;26.20;;
49422;SDS011;36998;51.974;20.150;2022-12-18T05:12:51;79.90;;;25.42;;
49422;SDS011;36998;51.974;20.150;2022-12-18T05:15:29;80.07;;;28.38;;
49422;SDS011;36998;51.974;20.150;2022-12-18T05:17:56;72.95;;;26.50;;
49422;SDS011;36998;51.974;20.150;2022-12-18T05:20:23;68.97;;;22.25;;
49422;SDS011;36998;51.974;20.150;2022-12-18T05:22:49;77.57;;;27.63;;
49422;SDS011;36998;51.974;20.150;2022-12-18T05:25:15;83.68;;;24.38;;
49422;SDS011;36998;51.974;20.150;2022-12-18T05:27:41;72.93;;;24.48;;
49422;SDS011;36998;51.974;20.150;2022-12-18T05:30:06;75.53;;;25.85;;
49422;SDS011;36998;51.974;20.150;2022-12-18T05:32:33;68.38;;;23.85;;
49422;SDS011;36998;51.974;20.150;2022-12-18T05:34:58;79.18;;;25.40;;
49422;SDS011;36998;51.974;20.150;2022-12-18T05:37:24;71.50;;;24.02;;
49422;SDS011;36998;51.974;20.150;2022-12-18T05:39:49;81.28;;;25.58;;
49422;SDS011;36998;51.974;20.150;2022-12-18T05:42:15;74.78;;;22.52;;
49422;SDS011;36998;51.974;20.150;2022-12-18T05:44:40;75.63;;;25.05;;
49422;SDS011;36998;51.974;20.150;2022-12-18T05:47:06;75.43;;;23.75;;
49422;SDS011;36998;51.974;20.150;2022-12-18T05:49:31;72.43;;;22.48;;
49422;SDS011;36998;51.974;20.150;2022-12-18T05:51:57;76.80;;;24.65;;
49422;SDS011;36998;51.974;20.150;2022-12-18T05:54:23;63.65;;;22.58;;
49422;SDS011;36998;51.974;20.150;2022-12-18T05:56:48;62.90;;;22.08;;
49422;SDS011;36998;51.974;20.150;2022-12-18T05:59:14;75.25;;;25.50;;
49422;SDS011;36998;51.974;20.150;2022-12-18T06:01:39;73.22;;;25.05;;
49422;SDS011;36998;51.974;20.150;2022-12-18T06:04:06;58.15;;;22.30;;
49422;SDS011;36998;51.974;20.150;2022-12-18T06:06:32;75.13;;;23.92;;
49422;SDS011;36998;51.974;20.150;2022-12-18T06:08:57;69.60;;;24.10;;
49422;SDS011;36998;51.974;20.150;2022-12-18T06:11:23;67.28;;;23.63;;
49422;SDS011;36998;51.974;20.150;2022-12-18T06:13:52;70.05;;;24.58;;
49422;SDS011;36998;51.974;20.150;2022-12-18T06:16:21;72.78;;;26.50;;
49422;SDS011;36998;51.974;20.150;2022-12-18T06:18:47;85.90;;;26.38;;
49422;SDS011;36998;51.974;20.150;2022-12-18T06:21:12;83.00;;;25.55;;
49422;SDS011;36998;51.974;20.150;2022-12-18T06:23:38;74.95;;;23.92;;
49422;SDS011;36998;51.974;20.150;2022-12-18T06:26:05;82.97;;;27.02;;
49422;SDS011;36998;51.974;20.150;2022-12-18T06:28:33;64.32;;;21.27;;
49422;SDS011;36998;51.974;20.150;2022-12-18T06:30:58;68.45;;;24.80;;
49422;SDS011;36998;51.974;20.150;2022-12-18T06:33:25;76.85;;;26.83;;
49422;SDS011;36998;51.974;20.150;2022-12-18T06:35:53;79.88;;;26.58;;
49422;SDS011;36998;51.974;20.150;2022-12-18T06:38:19;66.10;;;20.17;;
49422;SDS011;36998;51.974;20.150;2022-12-18T06:40:44;65.53;;;22.33;;
49422;SDS011;36998;51.974;20.150;2022-12-18T06:43:10;82.25;;;28.30;;
49422;SDS011;36998;51.974;20.150;2022-12-18T06:45:35;66.05;;;22.15;;
49422;SDS011;36998;51.974;20.150;2022-12-18T06:48:01;76.20;;;25.05;;
49422;SDS011;36998;51.974;20.150;2022-12-18T06:50:26;72.45;;;23.08;;
49422;SDS011;36998;51.974;20.150;2022-12-18T06:52:52;68.55;;;22.50;;
49422;SDS011;36998;51.974;20.150;2022-12-18T06:55:18;70.35;;;24.13;;
49422;SDS011;36998;51.974;20.150;2022-12-18T06:57:43;74.50;;;23.20;;
49422;SDS011;36998;51.974;20.150;2022-12-18T07:00:10;73.55;;;23.95;;
49422;SDS011;36998;51.974;20.150;2022-12-18T07:02:36;63.17;;;21.05;;
49422;SDS011;36998;51.974;20.150;2022-12-18T07:05:01;80.93;;;27.77;;
49422;SDS011;36998;51.974;20.150;2022-12-18T07:07:27;76.03;;;27.55;;
49422;SDS011;36998;51.974;20.150;2022-12-18T07:09:53;73.68;;;25.55;;
49422;SDS011;36998;51.974;20.150;2022-12-18T07:12:18;82.22;;;27.40;;
49422;SDS011;36998;51.974;20.150;2022-12-18T07:14:44;86.32;;;26.35;;
49422;SDS011;36998;51.974;20.150;2022-12-18T07:17:09;79.28;;;24.73;;
49422;SDS011;36998;51.974;20.150;2022-12-18T07:19:35;70.70;;;25.23;;
49422;SDS011;36998;51.974;20.150;2022-12-18T07:22:00;71.70;;;23.83;;
49422;SDS011;36998;51.974;20.150;2022-12-18T07:24:26;71.15;;;23.67;;
49422;SDS011;36998;51.974;20.150;2022-12-18T07:26:52;78.90;;;24.70;;
49422;SDS011;36998;51.974;20.150;2022-12-18T07:29:17;75.68;;;25.75;;
49422;SDS011;36998;51.974;20.150;2022-12-18T07:31:43;73.65;;;25.60;;
49422;SDS011;36998;51.974;20.150;2022-12-18T07:34:10;65.50;;;23.90;;
49422;SDS011;36998;51.974;20.150;2022-12-18T07:39:04;78.93;;;24.90;;
49422;SDS011;36998;51.974;20.150;2022-12-18T07:41:30;71.18;;;23.23;;
49422;SDS011;36998;51.974;20.150;2022-12-18T07:44:03;72.30;;;23.35;;
49422;SDS011;36998;51.974;20.150;2022-12-18T07:46:29;71.93;;;24.05;;
49422;SDS011;36998;51.974;20.150;2022-12-18T07:48:54;77.35;;;24.20;;
49422;SDS011;36998;51.974;20.150;2022-12-18T07:51:21;61.85;;;21.20;;
49422;SDS011;36998;51.974;20.150;2022-12-18T07:53:47;79.43;;;24.90;;
49422;SDS011;36998;51.974;20.150;2022-12-18T07:56:12;76.72;;;25.40;;
49422;SDS011;36998;51.974;20.150;2022-12-18T07:58:38;68.70;;;21.65;;
49422;SDS011;36998;51.974;20.150;2022-12-18T08:03:30;66.40;;;22.70;;
49422;SDS011;36998;51.974;20.150;2022-12-18T08:06:00;62.83;;;24.38;;
49422;SDS011;36998;51.974;20.150;2022-12-18T08:08:27;71.40;;;23.05;;
49422;SDS011;36998;51.974;20.150;2022-12-18T08:10:53;71.88;;;23.48;;
49422;SDS011;36998;51.974;20.150;2022-12-18T08:13:19;73.95;;;24.35;;
49422;SDS011;36998;51.974;20.150;2022-12-18T08:15:45;72.80;;;24.95;;
49422;SDS011;36998;51.974;20.150;2022-12-18T08:18:11;65.03;;;22.15;;
49422;SDS011;36998;51.974;20.150;2022-12-18T08:20:36;71.25;;;22.23;;
49422;SDS011;36998;51.974;20.150;2022-12-18T08:23:02;70.70;;;24.80;;
49422;SDS011;36998;51.974;20.150;2022-12-18T08:25:27;63.28;;;22.02;;
49422;SDS011;36998;51.974;20.150;2022-12-18T08:27:53;70.22;;;25.02;;
49422;SDS011;36998;51.974;20.150;2022-12-18T08:30:18;71.82;;;22.92;;
49422;SDS011;36998;51.974;20.150;2022-12-18T08:32:44;74.00;;;22.80;;
49422;SDS011;36998;51.974;20.150;2022-12-18T08:35:10;66.35;;;23.98;;
49422;SDS011;36998;51.974;20.150;2022-12-18T08:37:37;62.72;;;20.70;;
49422;SDS011;36998;51.974;20.150;2022-12-18T08:40:03;62.53;;;21.27;;
49422;SDS011;36998;51.974;20.150;2022-12-18T08:42:29;65.93;;;21.58;;
49422;SDS011;36998;51.974;20.150;2022-12-18T08:45:13;59.10;;;20.15;;
49422;SDS011;36998;51.974;20.150;2022-12-18T08:47:38;61.90;;;23.02;;
49422;SDS011;36998;51.974;20.150;2022-12-18T08:50:04;65.35;;;23.13;;
49422;SDS011;36998;51.974;20.150;2022-12-18T08:52:31;59.55;;;23.65;;
49422;SDS011;36998;51.974;20.150;2022-12-18T08:54:57;56.97;;;20.73;;
49422;SDS011;36998;51.974;20.150;2022-12-18T08:57:23;60.75;;;20.90;;
49422;SDS011;36998;51.974;20.150;2022-12-18T08:59:48;58.50;;;22.13;;
49422;SDS011;36998;51.974;20.150;2022-12-18T09:02:14;64.30;;;21.40;;
49422;SDS011;36998;51.974;20.150;2022-12-18T09:04:39;76.82;;;23.83;;
49422;SDS011;36998;51.974;20.150;2022-12-18T09:07:05;72.68;;;24.83;;
49422;SDS011;36998;51.974;20.150;2022-12-18T09:09:31;67.13;;;23.95;;
49422;SDS011;36998;51.974;20.150;2022-12-18T09:11:57;69.90;;;24.95;;
49422;SDS011;36998;51.974;20.150;2022-12-18T09:14:22;63.58;;;21.92;;
49422;SDS011;36998;51.974;20.150;2022-12-18T09:16:48;56.17;;;22.17;;
49422;SDS011;36998;51.974;20.150;2022-12-18T09:19:13;63.40;;;24.13;;
49422;SDS011;36998;51.974;20.150;2022-12-18T09:21:39;60.15;;;20.58;;
49422;SDS011;36998;51.974;20.150;2022-12-18T09:24:05;61.63;;;20.40;;
49422;SDS011;36998;51.974;20.150;2022-12-18T09:26:31;62.17;;;21.60;;
49422;SDS011;36998;51.974;20.150;2022-12-18T09:28:57;62.30;;;23.77;;
49422;SDS011;36998;51.974;20.150;2022-12-18T09:31:23;61.47;;;21.48;;
49422;SDS011;36998;51.974;20.150;2022-12-18T09:33:50;62.25;;;23.63;;
49422;SDS011;36998;51.974;20.150;2022-12-18T09:36:16;67.75;;;26.33;;
49422;SDS011;36998;51.974;20.150;2022-12-18T09:38:42;67.75;;;24.85;;
49422;SDS011;36998;51.974;20.150;2022-12-18T09:41:17;82.88;;;27.63;;
49422;SDS011;36998;51.974;20.150;2022-12-18T09:43:49;84.40;;;28.23;;
49422;SDS011;36998;51.974;20.150;2022-12-18T09:46:23;85.95;;;28.13;;
49422;SDS011;36998;51.974;20.150;2022-12-18T09:48:54;83.90;;;27.80;;
49422;SDS011;36998;51.974;20.150;2022-12-18T09:51:27;78.43;;;29.42;;
49422;SDS011;36998;51.974;20.150;2022-12-18T09:53:59;72.25;;;25.65;;
49422;SDS011;36998;51.974;20.150;2022-12-18T09:56:31;79.25;;;26.42;;
49422;SDS011;36998;51.974;20.150;2022-12-18T09:59:03;80.65;;;27.35;;
49422;SDS011;36998;51.974;20.150;2022-12-18T10:01:29;72.32;;;26.33;;
49422;SDS011;36998;51.974;20.150;2022-12-18T10:03:57;76.40;;;28.17;;
49422;SDS011;36998;51.974;20.150;2022-12-18T10:14:22;99.70;;;32.38;;
49422;SDS011;36998;51.974;20.150;2022-12-18T10:19:53;87.30;;;30.27;;
49422;SDS011;36998;51.974;20.150;2022-12-18T10:22:44;83.43;;;32.55;;
49422;SDS011;36998;51.974;20.150;2022-12-18T10:26:04;91.40;;;31.90;;
49422;SDS011;36998;51.974;20.150;2022-12-18T10:28:17;87.30;;;31.67;;
49422;SDS011;36998;51.974;20.150;2022-12-18T10:30:44;93.32;;;31.67;;
49422;SDS011;36998;51.974;20.150;2022-12-18T10:33:20;92.70;;;31.08;;
49422;SDS011;36998;51.974;20.150;2022-12-18T10:35:48;83.60;;;29.60;;
49422;SDS011;36998;51.974;20.150;2022-12-18T10:43:19;98.13;;;33.63;;
49422;SDS011;36998;51.974;20.150;2022-12-18T10:46:00;100.40;;;34.83;;
49422;SDS011;36998;51.974;20.150;2022-12-18T10:48:33;102.35;;;35.53;;
49422;SDS011;36998;51.974;20.150;2022-12-18T10:51:01;88.57;;;32.55;;
49422;SDS011;36998;51.974;20.150;2022-12-18T10:53:29;92.47;;;33.17;;
49422;SDS011;36998;51.974;20.150;2022-12-18T10:55:57;93.40;;;32.97;;
49422;SDS011;36998;51.974;20.150;2022-12-18T10:58:32;91.45;;;32.53;;
49422;SDS011;36998;51.974;20.150;2022-12-18T11:03:45;100.55;;;36.15;;
49422;SDS011;36998;51.974;20.150;2022-12-18T11:06:15;88.13;;;33.10;;
49422;SDS011;36998;51.974;20.150;2022-12-18T11:09:05;94.45;;;33.40;;
49422;SDS011;36998;51.974;20.150;2022-12-18T11:11:51;87.97;;;33.83;;
49422;SDS011;36998;51.974;20.150;2022-12-18T11:14:21;95.55;;;35.35;;
49422;SDS011;36998;51.974;20.150;2022-12-18T11:16:52;89.20;;;34.08;;
49422;SDS011;36998;51.974;20.150;2022-12-18T11:22:01;102.07;;;34.97;;
49422;SDS011;36998;51.974;20.150;2022-12-18T11:24:34;103.43;;;35.60;;
49422;SDS011;36998;51.974;20.150;2022-12-18T11:27:04;82.07;;;31.73;;
49422;SDS011;36998;51.974;20.150;2022-12-18T11:29:35;76.22;;;28.77;;
49422;SDS011;36998;51.974;20.150;2022-12-18T11:32:23;71.05;;;27.60;;
49422;SDS011;36998;51.974;20.150;2022-12-18T11:35:17;74.32;;;28.58;;
49422;SDS011;36998;51.974;20.150;2022-12-18T11:37:49;79.18;;;29.50;;
49422;SDS011;36998;51.974;20.150;2022-12-18T11:40:26;80.55;;;30.05;;
49422;SDS011;36998;51.974;20.150;2022-12-18T11:42:59;86.88;;;32.10;;
49422;SDS011;36998;51.974;20.150;2022-12-18T11:50:33;94.78;;;34.17;;
49422;SDS011;36998;51.974;20.150;2022-12-18T11:53:15;97.78;;;33.03;;
49422;SDS011;36998;51.974;20.150;2022-12-18T12:00:56;93.55;;;31.58;;
49422;SDS011;36998;51.974;20.150;2022-12-18T12:06:12;87.93;;;30.70;;
49422;SDS011;36998;51.974;20.150;2022-12-18T12:14:03;101.32;;;33.58;;
49422;SDS011;36998;51.974;20.150;2022-12-18T12:16:50;96.90;;;32.83;;
49422;SDS011;36998;51.974;20.150;2022-12-18T12:22:24;93.82;;;31.92;;
49422;SDS011;36998;51.974;20.150;2022-12-18T12:28:05;95.72;;;31.67;;
49422;SDS011;36998;51.974;20.150;2022-12-18T12:31:07;97.20;;;31.15;;
49422;SDS011;36998;51.974;20.150;2022-12-18T12:39:09;96.15;;;31.15;;
49422;SDS011;36998;51.974;20.150;2022-12-18T12:41:38;95.57;;;32.58;;
49422;SDS011;36998;51.974;20.150;2022-12-18T12:44:27;109.30;;;36.20;;
49422;SDS011;36998;51.974;20.150;2022-12-18T12:46:58;97.38;;;34.83;;
49422;SDS011;36998;51.974;20.150;2022-12-18T12:49:29;110.07;;;34.28;;
49422;SDS011;36998;51.974;20.150;2022-12-18T12:52:05;98.18;;;33.25;;
49422;SDS011;36998;51.974;20.150;2022-12-18T12:54:36;105.90;;;35.90;;
49422;SDS011;36998;51.974;20.150;2022-12-18T13:02:23;108.50;;;34.92;;
49422;SDS011;36998;51.974;20.150;2022-12-18T13:05:04;99.25;;;35.42;;
49422;SDS011;36998;51.974;20.150;2022-12-18T13:10:43;87.68;;;28.20;;
49422;SDS011;36998;51.974;20.150;2022-12-18T13:13:10;97.10;;;31.33;;
49422;SDS011;36998;51.974;20.150;2022-12-18T13:15:47;105.65;;;32.17;;
49422;SDS011;36998;51.974;20.150;2022-12-18T13:18:25;104.82;;;31.88;;
49422;SDS011;36998;51.974;20.150;2022-12-18T13:23:28;101.22;;;32.50;;
49422;SDS011;36998;51.974;20.150;2022-12-18T13:25:57;91.03;;;31.27;;
49422;SDS011;36998;51.974;20.150;2022-12-18T13:31:10;101.80;;;30.98;;
49422;SDS011;36998;51.974;20.150;2022-12-18T13:38:40;114.65;;;35.05;;
49422;SDS011;36998;51.974;20.150;2022-12-18T13:43:33;106.28;;;34.10;;
49422;SDS011;36998;51.974;20.150;2022-12-18T13:48:59;111.85;;;33.53;;
49422;SDS011;36998;51.974;20.150;2022-12-18T13:51:32;107.78;;;37.10;;
49422;SDS011;36998;51.974;20.150;2022-12-18T13:54:00;106.15;;;35.20;;
49422;SDS011;36998;51.974;20.150;2022-12-18T13:56:32;113.73;;;36.93;;
49422;SDS011;36998;51.974;20.150;2022-12-18T14:01:34;125.35;;;39.25;;
49422;SDS011;36998;51.974;20.150;2022-12-18T14:04:09;125.13;;;41.35;;
49422;SDS011;36998;51.974;20.150;2022-12-18T14:06:47;140.52;;;42.35;;
49422;SDS011;36998;51.974;20.150;2022-12-18T14:09:17;136.07;;;41.58;;
49422;SDS011;36998;51.974;20.150;2022-12-18T14:11:49;122.07;;;39.70;;
49422;SDS011;36998;51.974;20.150;2022-12-18T14:14:18;115.50;;;38.05;;
49422;SDS011;36998;51.974;20.150;2022-12-18T14:19:12;120.00;;;36.17;;
49422;SDS011;36998;51.974;20.150;2022-12-18T14:21:40;111.35;;;37.97;;
49422;SDS011;36998;51.974;20.150;2022-12-18T14:24:19;109.60;;;33.20;;
49422;SDS011;36998;51.974;20.150;2022-12-18T14:26:47;105.28;;;34.25;;
49422;SDS011;36998;51.974;20.150;2022-12-18T14:29:21;109.82;;;34.63;;
49422;SDS011;36998;51.974;20.150;2022-12-18T14:32:03;114.78;;;38.10;;
49422;SDS011;36998;51.974;20.150;2022-12-18T14:34:48;105.05;;;32.35;;
49422;SDS011;36998;51.974;20.150;2022-12-18T14:37:22;96.43;;;29.08;;
49422;SDS011;36998;51.974;20.150;2022-12-18T14:39:53;108.25;;;33.85;;
49422;SDS011;36998;51.974;20.150;2022-12-18T14:42:26;107.40;;;33.85;;
49422;SDS011;36998;51.974;20.150;2022-12-18T14:47:56;107.45;;;31.90;;
49422;SDS011;36998;51.974;20.150;2022-12-18T14:50:22;77.28;;;27.80;;
49422;SDS011;36998;51.974;20.150;2022-12-18T14:52:47;99.93;;;29.85;;
49422;SDS011;36998;51.974;20.150;2022-12-18T14:55:16;95.97;;;30.35;;
49422;SDS011;36998;51.974;20.150;2022-12-18T14:57:43;98.63;;;30.23;;
49422;SDS011;36998;51.974;20.150;2022-12-18T15:00:17;90.28;;;29.83;;
49422;SDS011;36998;51.974;20.150;2022-12-18T15:02:46;110.50;;;33.97;;
49422;SDS011;36998;51.974;20.150;2022-12-18T15:05:20;82.00;;;27.25;;
49422;SDS011;36998;51.974;20.150;2022-12-18T15:07:54;104.72;;;32.85;;
49422;SDS011;36998;51.974;20.150;2022-12-18T15:10:23;111.23;;;37.47;;
49422;SDS011;36998;51.974;20.150;2022-12-18T15:20:47;108.40;;;34.75;;
49422;SDS011;36998;51.974;20.150;2022-12-18T15:25:49;105.75;;;36.22;;
49422;SDS011;36998;51.974;20.150;2022-12-18T15:28:34;113.25;;;35.30;;
49422;SDS011;36998;51.974;20.150;2022-12-18T15:31:49;113.03;;;37.63;;
49422;SDS011;36998;51.974;20.150;2022-12-18T15:36:22;105.20;;;34.53;;
49422;SDS011;36998;51.974;20.150;2022-12-18T15:38:49;120.97;;;35.42;;
49422;SDS011;36998;51.974;20.150;2022-12-18T15:41:19;107.57;;;34.53;;
49422;SDS011;36998;51.974;20.150;2022-12-18T15:43:50;101.90;;;32.58;;
49422;SDS011;36998;51.974;20.150;2022-12-18T15:46:19;108.53;;;34.33;;
49422;SDS011;36998;51.974;20.150;2022-12-18T15:48:49;99.35;;;32.63;;
49422;SDS011;36998;51.974;20.150;2022-12-18T15:51:28;100.55;;;31.88;;
49422;SDS011;36998;51.974;20.150;2022-12-18T15:53:58;95.18;;;29.38;;
49422;SDS011;36998;51.974;20.150;2022-12-18T15:56:27;99.53;;;29.70;;
49422;SDS011;36998;51.974;20.150;2022-12-18T15:59:12;92.22;;;27.77;;
49422;SDS011;36998;51.974;20.150;2022-12-18T16:01:39;85.65;;;26.08;;
49422;SDS011;36998;51.974;20.150;2022-12-18T16:04:06;92.43;;;28.90;;
49422;SDS011;36998;51.974;20.150;2022-12-18T16:06:34;101.25;;;32.05;;
49422;SDS011;36998;51.974;20.150;2022-12-18T16:08:59;96.20;;;29.50;;
49422;SDS011;36998;51.974;20.150;2022-12-18T16:11:26;101.38;;;29.10;;
49422;SDS011;36998;51.974;20.150;2022-12-18T16:16:52;106.10;;;32.25;;
49422;SDS011;36998;51.974;20.150;2022-12-18T16:19:20;99.88;;;31.63;;
49422;SDS011;36998;51.974;20.150;2022-12-18T16:21:46;105.47;;;35.97;;
49422;SDS011;36998;51.974;20.150;2022-12-18T16:24:18;98.05;;;32.78;;
49422;SDS011;36998;51.974;20.150;2022-12-18T16:26:47;117.03;;;33.53;;
49422;SDS011;36998;51.974;20.150;2022-12-18T16:29:13;117.00;;;35.25;;
49422;SDS011;36998;51.974;20.150;2022-12-18T16:31:39;109.32;;;35.20;;